Time;durP1;ratioP1;P1;durP2;ratioP2;P2;SDS_P1;SDS_P2;PMS_P1;PMS_P2;Temp;Humidity;BMP_temperature;BMP_pressure;BME280_temperature;BME280_humidity;BME280_pressure;Samples;Min_cycle;Max_cycle;Signal;HPM_P1;HPM_P2
2021/10/12 00:02:22;;;;;;;3.80;3.50;;;;;;;;;;5016763;28;20201;-95
2021/10/12 00:04:50;;;;;;;3.00;2.70;;;;;;;;;;5016282;28;20203;-94
2021/10/12 00:07:19;;;;;;;2.57;2.37;;;;;;;;;;5016155;28;20209;-94
2021/10/12 00:09:47;;;;;;;2.67;2.47;;;;;;;;;;5016306;28;20203;-95
2021/10/12 00:12:17;;;;;;;2.37;2.20;;;;;;;;;;5016067;28;20200;-94
2021/10/12 00:14:45;;;;;;;66.17;9.70;;;;;;;;;;5015751;28;20737;-95
2021/10/12 00:17:13;;;;;;;107.30;16.37;;;;;;;;;;5017303;28;20206;-95
2021/10/12 00:19:40;;;;;;;142.77;21.57;;;;;;;;;;5016633;28;20210;-95
2021/10/12 00:22:08;;;;;;;16.80;5.23;;;;;;;;;;5016682;28;20210;-96
2021/10/12 00:24:37;;;;;;;62.47;11.47;;;;;;;;;;5016552;28;20203;-96
2021/10/12 00:27:05;;;;;;;136.77;25.47;;;;;;;;;;5015725;28;20209;-96
2021/10/12 00:29:33;;;;;;;82.07;14.83;;;;;;;;;;5015609;28;20737;-96
2021/10/12 00:32:00;;;;;;;26.33;8.77;;;;;;;;;;5015646;28;20209;-95
2021/10/12 00:34:27;;;;;;;66.03;11.40;;;;;;;;;;5015850;28;20768;-95
2021/10/12 00:36:55;;;;;;;59.93;10.47;;;;;;;;;;5015899;28;20213;-94
2021/10/12 00:39:22;;;;;;;17.03;6.17;;;;;;;;;;5015588;28;20208;-95
2021/10/12 00:41:52;;;;;;;28.07;6.90;;;;;;;;;;5015499;28;20235;-95
2021/10/12 00:44:20;;;;;;;17.97;5.73;;;;;;;;;;5015434;28;20255;-96
2021/10/12 00:46:47;;;;;;;11.47;5.70;;;;;;;;;;5015421;28;20210;-95
2021/10/12 00:49:15;;;;;;;6.47;4.60;;;;;;;;;;5015304;28;20210;-95
2021/10/12 00:51:42;;;;;;;4.60;4.17;;;;;;;;;;5015242;28;20203;-95
2021/10/12 00:54:10;;;;;;;16.67;6.63;;;;;;;;;;5014752;28;20236;-95
2021/10/12 00:56:37;;;;;;;3.80;3.50;;;;;;;;;;5015163;28;20631;-96
2021/10/12 00:59:09;;;;;;;9.80;4.20;;;;;;;;;;5015253;28;20698;-95
2021/10/12 01:01:38;;;;;;;3.60;3.30;;;;;;;;;;5015383;28;20647;-95
2021/10/12 01:04:06;;;;;;;4.90;3.60;;;;;;;;;;5015222;28;20736;-94
2021/10/12 01:06:33;;;;;;;4.60;3.67;;;;;;;;;;5014931;28;20198;-96
2021/10/12 01:09:01;;;;;;;3.83;3.10;;;;;;;;;;5014916;28;20205;-95
2021/10/12 01:11:28;;;;;;;3.70;3.40;;;;;;;;;;5014788;28;20255;-95
2021/10/12 01:13:56;;;;;;;14.23;3.90;;;;;;;;;;5014652;28;20207;-95
2021/10/12 01:16:25;;;;;;;5.17;4.03;;;;;;;;;;5015019;28;20659;-95
2021/10/12 01:18:57;;;;;;;71.30;13.07;;;;;;;;;;5014754;28;20204;-95
2021/10/12 01:21:29;;;;;;;8.73;4.80;;;;;;;;;;5014758;28;20669;-95
2021/10/12 01:23:57;;;;;;;10.83;4.90;;;;;;;;;;5014897;28;20677;-95
2021/10/12 01:26:25;;;;;;;26.33;8.53;;;;;;;;;;5014672;28;20198;-95
2021/10/12 01:28:52;;;;;;;5.17;3.63;;;;;;;;;;5014749;28;20195;-95
2021/10/12 01:31:23;;;;;;;11.40;4.20;;;;;;;;;;5014560;28;20208;-96
2021/10/12 01:33:51;;;;;;;11.40;8.40;;;;;;;;;;5014675;28;20199;-95
2021/10/12 01:36:18;;;;;;;5.23;4.73;;;;;;;;;;5014071;28;20227;-95
2021/10/12 01:38:47;;;;;;;79.07;13.83;;;;;;;;;;5014472;28;20234;-95
2021/10/12 01:41:15;;;;;;;212.93;29.13;;;;;;;;;;5014375;28;20210;-95
2021/10/12 01:43:43;;;;;;;108.40;20.03;;;;;;;;;;5014387;28;20258;-95
2021/10/12 01:46:11;;;;;;;141.87;18.27;;;;;;;;;;5014407;28;20212;-95
2021/10/12 01:48:39;;;;;;;78.33;15.83;;;;;;;;;;5014327;28;20319;-95
2021/10/12 01:51:06;;;;;;;37.53;9.07;;;;;;;;;;5014423;28;20213;-95
2021/10/12 01:53:34;;;;;;;31.57;6.63;;;;;;;;;;5014442;28;20207;-96
2021/10/12 01:56:04;;;;;;;14.47;6.93;;;;;;;;;;5013980;28;20223;-95
2021/10/12 01:58:31;;;;;;;26.73;6.53;;;;;;;;;;5014161;28;20203;-95
2021/10/12 02:00:59;;;;;;;56.53;10.63;;;;;;;;;;5022636;28;20271;-96
2021/10/12 02:06:14;;;;;;;13.00;4.30;;;;;;;;;;5017057;28;20207;-95
2021/10/12 02:08:45;;;;;;;11.17;4.43;;;;;;;;;;5019069;28;20192;-95
2021/10/12 02:11:20;;;;;;;14.77;10.60;;;;;;;;;;5263017;22;20251;-96
2021/10/12 02:13:48;;;;;;;14.13;10.47;;;;;;;;;;5049822;28;20268;-96
2021/10/12 02:16:15;;;;;;;3.53;2.80;;;;;;;;;;5053030;28;20273;-95
2021/10/12 02:18:43;;;;;;;3.07;2.47;;;;;;;;;;5050721;28;20195;-94
2021/10/12 02:21:10;;;;;;;2.30;1.60;;;;;;;;;;5053090;28;20221;-94
2021/10/12 02:23:38;;;;;;;2.37;2.00;;;;;;;;;;5052830;28;20178;-95
2021/10/12 02:26:05;;;;;;;5.33;3.43;;;;;;;;;;5052545;28;20200;-96
2021/10/12 02:28:34;;;;;;;7.40;4.13;;;;;;;;;;5051783;28;20202;-95
2021/10/12 02:31:02;;;;;;;4.50;4.13;;;;;;;;;;5054857;28;20191;-95
2021/10/12 02:33:30;;;;;;;31.60;8.60;;;;;;;;;;5054718;28;20199;-96
2021/10/12 02:35:57;;;;;;;6.10;5.50;;;;;;;;;;5048411;28;20248;-95
2021/10/12 02:38:25;;;;;;;4.57;3.40;;;;;;;;;;5033954;28;20195;-96
2021/10/12 02:40:53;;;;;;;2.17;1.70;;;;;;;;;;5043616;28;20193;-95
2021/10/12 02:43:27;;;;;;;1.57;1.47;;;;;;;;;;5047257;28;20228;-95
2021/10/12 02:46:04;;;;;;;1.40;1.30;;;;;;;;;;5055414;28;20198;-96
2021/10/12 02:48:35;;;;;;;1.90;1.70;;;;;;;;;;5056529;28;20209;-96
2021/10/12 02:51:03;;;;;;;3.10;2.17;;;;;;;;;;5054436;28;20258;-96
2021/10/12 02:53:44;;;;;;;1.97;1.60;;;;;;;;;;5052301;28;20213;-95
2021/10/12 02:56:12;;;;;;;2.93;1.80;;;;;;;;;;5051500;28;20239;-96
2021/10/12 02:58:39;;;;;;;2.70;2.13;;;;;;;;;;5045545;28;20669;-95
2021/10/12 03:01:09;;;;;;;2.17;1.47;;;;;;;;;;5046313;28;20256;-95
2021/10/12 03:03:36;;;;;;;1.77;1.33;;;;;;;;;;5042703;28;20256;-96
2021/10/12 03:06:05;;;;;;;4.93;1.80;;;;;;;;;;5045196;28;20198;-95
2021/10/12 03:08:32;;;;;;;3.73;2.00;;;;;;;;;;5050567;28;20212;-96
2021/10/12 03:11:00;;;;;;;2.13;1.50;;;;;;;;;;5034982;28;20235;-96
2021/10/12 03:13:27;;;;;;;1.83;1.73;;;;;;;;;;5034075;28;20273;-96
2021/10/12 03:15:55;;;;;;;1.47;1.33;;;;;;;;;;5034135;28;20219;-96
2021/10/12 03:27:03;;;;;;;2.10;1.97;;;;;;;;;;5042272;28;20213;-96
2021/10/12 03:29:30;;;;;;;2.63;2.37;;;;;;;;;;5037662;28;20205;-96
2021/10/12 03:32:01;;;;;;;2.40;2.20;;;;;;;;;;5039443;28;20205;-96
2021/10/12 03:34:29;;;;;;;2.30;2.10;;;;;;;;;;5038079;28;20199;-94
2021/10/12 03:37:00;;;;;;;1.50;1.40;;;;;;;;;;5037433;28;20667;-96
2021/10/12 03:40:13;;;;;;;1.60;1.50;;;;;;;;;;5049053;28;20676;-96
2021/10/12 03:42:45;;;;;;;1.80;1.70;;;;;;;;;;5019666;28;20211;-95
2021/10/12 03:45:22;;;;;;;1.70;1.60;;;;;;;;;;5047471;28;20198;-95
2021/10/12 03:47:51;;;;;;;1.77;1.40;;;;;;;;;;5047091;28;20206;-96
2021/10/12 03:50:22;;;;;;;1.30;1.20;;;;;;;;;;5051975;28;20224;-95
2021/10/12 03:52:50;;;;;;;6.10;2.93;;;;;;;;;;5047362;28;20187;-94
2021/10/12 03:55:17;;;;;;;3.00;2.70;;;;;;;;;;5052167;28;20245;-96
2021/10/12 03:57:46;;;;;;;2.00;1.90;;;;;;;;;;5047716;28;20207;-93
2021/10/12 04:00:21;;;;;;;1.27;1.20;;;;;;;;;;5050022;28;20203;-95
2021/10/12 04:02:50;;;;;;;1.43;1.33;;;;;;;;;;5053404;28;20202;-95
2021/10/12 04:05:18;;;;;;;1.57;1.47;;;;;;;;;;5048133;28;20225;-96
2021/10/12 04:07:47;;;;;;;13.20;2.10;;;;;;;;;;5037113;28;20232;-94
2021/10/12 04:19:09;;;;;;;3.60;1.30;;;;;;;;;;5043848;28;20260;-95
2021/10/12 04:21:46;;;;;;;1.40;1.30;;;;;;;;;;5041573;28;20278;-94
2021/10/12 04:24:14;;;;;;;1.70;1.20;;;;;;;;;;5036269;28;20203;-95
2021/10/12 04:26:45;;;;;;;1.30;1.20;;;;;;;;;;5036772;28;20214;-95
2021/10/12 04:29:13;;;;;;;1.43;1.33;;;;;;;;;;5035306;28;20286;-95
2021/10/12 04:31:42;;;;;;;1.80;1.70;;;;;;;;;;5036167;28;20199;-94
2021/10/12 04:34:10;;;;;;;3.23;2.63;;;;;;;;;;5036096;28;20222;-96
2021/10/12 04:36:38;;;;;;;2.00;1.80;;;;;;;;;;5035065;28;20226;-95
2021/10/12 04:39:06;;;;;;;1.60;1.50;;;;;;;;;;5035543;28;20257;-95
2021/10/12 04:41:33;;;;;;;2.07;1.30;;;;;;;;;;5036013;28;20207;-94
2021/10/12 04:44:02;;;;;;;1.90;1.80;;;;;;;;;;5036326;28;20205;-94
2021/10/12 04:46:29;;;;;;;1.40;1.23;;;;;;;;;;5036250;28;20217;-93
2021/10/12 04:49:04;;;;;;;1.93;1.30;;;;;;;;;;5035212;28;20234;-95
2021/10/12 04:51:31;;;;;;;1.33;1.23;;;;;;;;;;5035240;28;20206;-95
2021/10/12 04:53:59;;;;;;;1.20;1.10;;;;;;;;;;5035045;28;20201;-94
2021/10/12 04:56:27;;;;;;;2.40;1.20;;;;;;;;;;5035002;28;20228;-94
2021/10/12 04:58:54;;;;;;;2.23;2.10;;;;;;;;;;5035262;28;20207;-95
2021/10/12 05:01:22;;;;;;;2.63;2.20;;;;;;;;;;5035326;28;20222;-96
2021/10/12 05:03:49;;;;;;;2.30;2.10;;;;;;;;;;5035317;28;20198;-93
2021/10/12 05:06:18;;;;;;;3.03;2.83;;;;;;;;;;5034770;28;20273;-92
2021/10/12 05:08:46;;;;;;;2.63;2.43;;;;;;;;;;5034823;28;20200;-94
2021/10/12 05:11:13;;;;;;;4.70;4.40;;;;;;;;;;5037716;28;20199;-95
2021/10/12 05:13:41;;;;;;;2.90;2.70;;;;;;;;;;5037234;28;20206;-95
2021/10/12 05:16:12;;;;;;;4.03;3.73;;;;;;;;;;5034703;28;20219;-95
2021/10/12 05:18:41;;;;;;;2.97;2.77;;;;;;;;;;5035730;28;20663;-95
2021/10/12 05:21:09;;;;;;;2.30;2.10;;;;;;;;;;5038568;28;20218;-95
2021/10/12 05:23:38;;;;;;;3.03;2.83;;;;;;;;;;5042132;28;20203;-96
2021/10/12 05:26:07;;;;;;;3.40;2.70;;;;;;;;;;5046340;28;20233;-95
2021/10/12 05:28:36;;;;;;;18.47;16.83;;;;;;;;;;5042099;28;20216;-96
2021/10/12 05:31:04;;;;;;;11.87;10.87;;;;;;;;;;5044632;28;20210;-96
2021/10/12 05:33:32;;;;;;;8.47;7.77;;;;;;;;;;5042645;28;20714;-96
2021/10/12 05:36:00;;;;;;;3.17;2.97;;;;;;;;;;5040903;28;20227;-96
2021/10/12 05:38:28;;;;;;;4.70;4.40;;;;;;;;;;5037376;28;20213;-95
2021/10/12 05:40:58;;;;;;;4.07;2.23;;;;;;;;;;5041996;28;20207;-96
2021/10/12 05:43:25;;;;;;;1.57;1.47;;;;;;;;;;5040323;28;20203;-96
2021/10/12 05:45:56;;;;;;;1.13;1.13;;;;;;;;;;5036498;28;20201;-95
2021/10/12 05:48:23;;;;;;;3.20;2.90;;;;;;;;;;5037054;28;20268;-95
2021/10/12 05:50:51;;;;;;;3.93;3.57;;;;;;;;;;5037239;28;20203;-95
2021/10/12 05:53:28;;;;;;;7.40;6.80;;;;;;;;;;5034289;28;20194;-95
2021/10/12 05:56:03;;;;;;;11.87;10.77;;;;;;;;;;5035127;28;20233;-95
2021/10/12 05:58:35;;;;;;;2.87;2.67;;;;;;;;;;5037221;28;20208;-96
2021/10/12 06:01:04;;;;;;;7.03;6.43;;;;;;;;;;5034290;28;20571;-95
2021/10/12 06:03:32;;;;;;;23.67;21.40;;;;;;;;;;5034209;28;20199;-95
2021/10/12 06:06:00;;;;;;;6.10;5.57;;;;;;;;;;5033464;28;20749;-95
2021/10/12 06:08:30;;;;;;;1.70;1.60;;;;;;;;;;5034573;28;20230;-96
2021/10/12 06:10:59;;;;;;;4.40;1.37;;;;;;;;;;5033642;28;20228;-95
2021/10/12 06:13:26;;;;;;;1.10;1.00;;;;;;;;;;5033480;28;20203;-95
2021/10/12 06:15:54;;;;;;;1.63;1.53;;;;;;;;;;5033745;28;20242;-95
2021/10/12 06:18:22;;;;;;;1.20;1.20;;;;;;;;;;5033720;28;20207;-96
2021/10/12 06:20:50;;;;;;;3.83;3.43;;;;;;;;;;5033569;28;20208;-95
2021/10/12 06:23:18;;;;;;;3.80;2.57;;;;;;;;;;5033502;28;20260;-94
2021/10/12 06:25:46;;;;;;;1.93;1.80;;;;;;;;;;5033171;28;20564;-94
2021/10/12 06:28:16;;;;;;;1.20;1.20;;;;;;;;;;5032874;28;20229;-95
2021/10/12 06:30:44;;;;;;;2.00;1.40;;;;;;;;;;5033159;28;20205;-96
2021/10/12 06:33:12;;;;;;;8.37;5.93;;;;;;;;;;5033364;28;20219;-95
2021/10/12 06:35:39;;;;;;;5.53;4.17;;;;;;;;;;5033127;28;20194;-95
2021/10/12 06:38:07;;;;;;;3.73;2.93;;;;;;;;;;5033794;28;20642;-96
2021/10/12 06:40:37;;;;;;;1.50;1.40;;;;;;;;;;5033206;28;20234;-95
2021/10/12 06:43:04;;;;;;;1.70;1.60;;;;;;;;;;5033253;28;20438;-95
2021/10/12 06:45:33;;;;;;;1.83;1.70;;;;;;;;;;5033146;28;20284;-94
2021/10/12 06:48:01;;;;;;;2.67;2.27;;;;;;;;;;5033152;28;20255;-95
2021/10/12 06:50:29;;;;;;;3.27;2.40;;;;;;;;;;5033204;28;20195;-93
2021/10/12 06:52:56;;;;;;;3.50;2.73;;;;;;;;;;5032686;28;20206;-94
2021/10/12 06:55:25;;;;;;;3.30;2.93;;;;;;;;;;5033011;28;20223;-94
2021/10/12 06:57:52;;;;;;;1.60;1.50;;;;;;;;;;5032639;28;20309;-95
2021/10/12 07:00:23;;;;;;;1.80;1.70;;;;;;;;;;5032991;28;20219;-94
2021/10/12 07:02:52;;;;;;;2.40;2.20;;;;;;;;;;5032888;28;20203;-92
2021/10/12 07:05:19;;;;;;;1.60;1.50;;;;;;;;;;5032936;28;20225;-94
2021/10/12 07:07:47;;;;;;;1.93;1.80;;;;;;;;;;5033200;28;20261;-94
2021/10/12 07:10:15;;;;;;;4.40;4.10;;;;;;;;;;5033004;28;20200;-95
2021/10/12 07:12:43;;;;;;;3.73;3.53;;;;;;;;;;5032799;28;20196;-96
2021/10/12 07:15:11;;;;;;;5.10;3.13;;;;;;;;;;5032922;28;20621;-95
2021/10/12 07:17:39;;;;;;;1.50;1.40;;;;;;;;;;5032700;28;20737;-95
2021/10/12 07:20:10;;;;;;;3.87;3.57;;;;;;;;;;5033084;28;20205;-95
2021/10/12 07:22:37;;;;;;;4.27;3.97;;;;;;;;;;5032756;28;20282;-93
2021/10/12 07:25:06;;;;;;;1.93;1.83;;;;;;;;;;5032579;28;20263;-95
2021/10/12 07:27:34;;;;;;;1.90;1.80;;;;;;;;;;5032762;28;20206;-95
2021/10/12 07:30:02;;;;;;;1.60;1.50;;;;;;;;;;5032714;28;20221;-95
2021/10/12 07:32:29;;;;;;;2.40;1.80;;;;;;;;;;5032739;28;20246;-94
2021/10/12 07:34:57;;;;;;;1.73;1.63;;;;;;;;;;5032945;28;20692;-94
2021/10/12 07:37:26;;;;;;;1.63;1.53;;;;;;;;;;5032578;28;20707;-94
2021/10/12 07:39:53;;;;;;;2.00;1.90;;;;;;;;;;5032578;28;20207;-95
2021/10/12 07:42:21;;;;;;;2.23;2.03;;;;;;;;;;5032526;28;20246;-94
2021/10/12 07:44:49;;;;;;;1.70;1.60;;;;;;;;;;5032575;28;20203;-93
2021/10/12 07:47:16;;;;;;;2.20;2.00;;;;;;;;;;5032507;28;20264;-90
2021/10/12 07:49:44;;;;;;;1.80;1.70;;;;;;;;;;5032501;28;20208;-93
2021/10/12 07:52:11;;;;;;;1.80;1.70;;;;;;;;;;5032497;28;20655;-93
2021/10/12 07:54:45;;;;;;;1.60;1.50;;;;;;;;;;5032511;28;20221;-93
2021/10/12 07:57:14;;;;;;;4.00;3.60;;;;;;;;;;5032764;28;20718;-94
2021/10/12 07:59:42;;;;;;;1.80;1.70;;;;;;;;;;5032510;28;20203;-95
2021/10/12 08:02:11;;;;;;;1.50;1.40;;;;;;;;;;5032421;28;20671;-92
2021/10/12 08:04:40;;;;;;;1.97;1.87;;;;;;;;;;5034307;28;20278;-93
2021/10/12 08:07:07;;;;;;;1.40;1.30;;;;;;;;;;5035918;28;20198;-94
2021/10/12 08:09:36;;;;;;;2.07;1.97;;;;;;;;;;5035909;28;20195;-92
2021/10/12 08:12:06;;;;;;;2.23;2.03;;;;;;;;;;5035798;28;20203;-93
2021/10/12 08:14:37;;;;;;;1.40;1.30;;;;;;;;;;5035530;28;20195;-94
2021/10/12 08:17:04;;;;;;;1.80;1.70;;;;;;;;;;5035603;28;20207;-92
2021/10/12 08:19:32;;;;;;;2.00;1.63;;;;;;;;;;5035522;28;20231;-90
2021/10/12 08:21:59;;;;;;;1.83;1.73;;;;;;;;;;5035531;28;20293;-90
2021/10/12 08:24:26;;;;;;;1.80;1.70;;;;;;;;;;5035253;28;20212;-89
2021/10/12 08:26:54;;;;;;;1.40;1.30;;;;;;;;;;5035595;28;20190;-92
2021/10/12 08:29:23;;;;;;;1.53;1.43;;;;;;;;;;5035949;28;20203;-93
2021/10/12 08:31:50;;;;;;;3.37;2.83;;;;;;;;;;5035743;28;20645;-94
2021/10/12 08:34:17;;;;;;;2.30;2.00;;;;;;;;;;5035175;28;20194;-93
2021/10/12 08:36:45;;;;;;;4.53;4.03;;;;;;;;;;5035007;28;20226;-92
2021/10/12 08:39:12;;;;;;;7.07;4.87;;;;;;;;;;5035244;28;20190;-92
2021/10/12 08:41:45;;;;;;;1.57;1.47;;;;;;;;;;5035152;28;20264;-90
2021/10/12 08:44:12;;;;;;;1.70;1.60;;;;;;;;;;5035161;28;20697;-94
2021/10/12 08:46:41;;;;;;;4.33;3.93;;;;;;;;;;5035170;28;20654;-92
2021/10/12 08:49:09;;;;;;;2.93;2.63;;;;;;;;;;5035228;28;20199;-91
2021/10/12 08:51:36;;;;;;;1.67;1.57;;;;;;;;;;5035159;28;20194;-91
2021/10/12 08:54:04;;;;;;;1.47;1.37;;;;;;;;;;5035658;28;20206;-91
2021/10/12 08:56:31;;;;;;;1.53;1.43;;;;;;;;;;5035310;28;20202;-91
2021/10/12 08:58:58;;;;;;;2.63;2.43;;;;;;;;;;5035028;28;20199;-93
2021/10/12 09:01:28;;;;;;;1.80;1.70;;;;;;;;;;5034968;28;20203;-91
2021/10/12 09:04:03;;;;;;;2.47;2.27;;;;;;;;;;5034982;28;20277;-92
2021/10/12 09:06:31;;;;;;;1.40;1.30;;;;;;;;;;5035083;28;20196;-92
2021/10/12 09:09:00;;;;;;;1.50;1.40;;;;;;;;;;5034735;28;20797;-91
2021/10/12 09:11:29;;;;;;;1.50;1.40;;;;;;;;;;5034823;28;20628;-91
2021/10/12 09:14:04;;;;;;;1.57;1.47;;;;;;;;;;5034764;28;20214;-92
2021/10/12 09:16:34;;;;;;;1.50;1.40;;;;;;;;;;5034238;28;20263;-92
2021/10/12 09:19:04;;;;;;;5.03;2.57;;;;;;;;;;5034791;28;20226;-92
2021/10/12 09:21:35;;;;;;;3.50;1.20;;;;;;;;;;5035081;28;20189;-91
2021/10/12 09:24:08;;;;;;;2.10;1.30;;;;;;;;;;5034758;28;20313;-92
2021/10/12 09:26:36;;;;;;;1.60;1.50;;;;;;;;;;5034088;28;20234;-92
2021/10/12 09:29:08;;;;;;;1.13;1.10;;;;;;;;;;5034596;28;20585;-92
2021/10/12 09:31:38;;;;;;;2.07;1.87;;;;;;;;;;5034177;28;20183;-90
2021/10/12 09:34:09;;;;;;;1.00;1.00;;;;;;;;;;5034073;28;20227;-92
2021/10/12 09:36:39;;;;;;;1.50;1.40;;;;;;;;;;5034020;28;20187;-91
2021/10/12 09:39:08;;;;;;;1.43;1.40;;;;;;;;;;5034786;28;20226;-93
2021/10/12 09:41:36;;;;;;;2.60;1.40;;;;;;;;;;5034146;28;20245;-90
2021/10/12 09:44:13;;;;;;;1.60;1.50;;;;;;;;;;5033934;28;20203;-90
2021/10/12 09:46:42;;;;;;;1.70;1.60;;;;;;;;;;5034102;28;20186;-91
2021/10/12 09:49:18;;;;;;;2.80;1.40;;;;;;;;;;5034032;28;20195;-91
2021/10/12 09:51:56;;;;;;;1.50;1.40;;;;;;;;;;5033985;28;20195;-92
2021/10/12 09:54:24;;;;;;;1.33;1.23;;;;;;;;;;5033761;28;20200;-92
2021/10/12 09:56:52;;;;;;;3.10;2.23;;;;;;;;;;5033628;28;20238;-91
2021/10/12 09:59:19;;;;;;;1.40;1.30;;;;;;;;;;5033876;28;20288;-92
2021/10/12 10:01:48;;;;;;;2.47;1.43;;;;;;;;;;5033679;28;20201;-93
2021/10/12 10:04:19;;;;;;;1.40;1.30;;;;;;;;;;5033867;28;20206;-91
2021/10/12 10:06:47;;;;;;;1.00;1.00;;;;;;;;;;5033488;28;20187;-91
2021/10/12 10:09:15;;;;;;;1.70;1.60;;;;;;;;;;5033487;28;20206;-91
2021/10/12 10:11:43;;;;;;;1.17;1.07;;;;;;;;;;5033485;28;20241;-92
2021/10/12 10:14:12;;;;;;;1.00;1.00;;;;;;;;;;5033763;28;20305;-91
2021/10/12 10:16:41;;;;;;;1.20;1.20;;;;;;;;;;5033690;28;20198;-92
2021/10/12 10:19:10;;;;;;;2.00;1.90;;;;;;;;;;5033225;28;20321;-93
2021/10/12 10:21:46;;;;;;;1.67;1.57;;;;;;;;;;5033324;28;20659;-91
2021/10/12 10:24:20;;;;;;;2.40;2.30;;;;;;;;;;5034257;28;20224;-91
2021/10/12 10:26:47;;;;;;;2.80;2.60;;;;;;;;;;5032670;28;20272;-91
2021/10/12 10:29:21;;;;;;;1.40;1.30;;;;;;;;;;5033302;28;20279;-91
2021/10/12 10:31:51;;;;;;;1.33;1.23;;;;;;;;;;5033388;28;20196;-91
2021/10/12 10:34:29;;;;;;;2.03;1.30;;;;;;;;;;5033211;28;20233;-93
2021/10/12 10:37:30;;;;;;;0.97;0.97;;;;;;;;;;5033195;28;20325;-93
2021/10/12 10:40:00;;;;;;;1.30;1.20;;;;;;;;;;5033294;28;20252;-91
2021/10/12 10:42:59;;;;;;;1.70;1.60;;;;;;;;;;5033703;28;20222;-92
2021/10/12 10:45:56;;;;;;;1.33;1.10;;;;;;;;;;5033132;28;20206;-91
2021/10/12 10:48:25;;;;;;;1.30;1.20;;;;;;;;;;5033598;28;20198;-90
2021/10/12 10:50:53;;;;;;;1.07;1.00;;;;;;;;;;5033026;28;20198;-90
2021/10/12 10:53:40;;;;;;;0.90;0.90;;;;;;;;;;5033341;28;20628;-91
2021/10/12 10:56:07;;;;;;;1.17;1.10;;;;;;;;;;5032812;28;20245;-90
2021/10/12 10:58:34;;;;;;;2.93;2.63;;;;;;;;;;5032775;28;20761;-92
2021/10/12 11:01:01;;;;;;;0.90;0.90;;;;;;;;;;5032952;28;20191;-90
2021/10/12 11:03:42;;;;;;;1.37;1.27;;;;;;;;;;5032808;28;20205;-92
2021/10/12 11:06:17;;;;;;;2.73;1.83;;;;;;;;;;5032938;28;20187;-91
2021/10/12 11:09:00;;;;;;;1.53;1.43;;;;;;;;;;5033082;28;20201;-93
2021/10/12 11:11:34;;;;;;;2.90;1.20;;;;;;;;;;5032617;28;20186;-93
2021/10/12 11:14:02;;;;;;;1.03;0.93;;;;;;;;;;5032700;28;20269;-92
2021/10/12 11:16:35;;;;;;;2.57;2.27;;;;;;;;;;5032941;28;20202;-92
2021/10/12 11:19:04;;;;;;;1.40;1.30;;;;;;;;;;5032487;28;20214;-92
2021/10/12 11:21:31;;;;;;;1.20;1.10;;;;;;;;;;5032587;28;20211;-93
2021/10/12 11:24:02;;;;;;;1.60;1.50;;;;;;;;;;5032899;28;20582;-90
2021/10/12 11:26:31;;;;;;;0.90;0.90;;;;;;;;;;5032469;28;20219;-93
2021/10/12 11:28:59;;;;;;;1.10;1.00;;;;;;;;;;5032636;28;20206;-92
2021/10/12 11:31:28;;;;;;;0.97;0.97;;;;;;;;;;5032788;28;20221;-91
2021/10/12 11:33:58;;;;;;;1.83;1.53;;;;;;;;;;5032856;28;20207;-90
2021/10/12 11:36:26;;;;;;;0.90;0.90;;;;;;;;;;5032827;28;20203;-92
2021/10/12 11:38:55;;;;;;;0.67;0.67;;;;;;;;;;5034490;28;20249;-91
2021/10/12 11:41:26;;;;;;;1.90;1.80;;;;;;;;;;5036412;28;20281;-91
2021/10/12 11:43:56;;;;;;;1.87;1.63;;;;;;;;;;5036634;28;20574;-91
2021/10/12 11:46:26;;;;;;;0.57;0.57;;;;;;;;;;5036391;28;20222;-92
2021/10/12 11:48:54;;;;;;;1.30;1.20;;;;;;;;;;5036903;28;20199;-89
2021/10/12 11:51:23;;;;;;;1.90;1.60;;;;;;;;;;5036229;28;20277;-92
2021/10/12 11:53:52;;;;;;;1.60;1.50;;;;;;;;;;5036128;28;20285;-91
2021/10/12 11:56:21;;;;;;;1.67;1.57;;;;;;;;;;5036136;28;20252;-93
2021/10/12 11:58:55;;;;;;;1.40;1.30;;;;;;;;;;5036106;28;20236;-91
2021/10/12 12:01:34;;;;;;;2.60;1.30;;;;;;;;;;5036637;28;20258;-91
2021/10/12 12:04:02;;;;;;;2.10;0.90;;;;;;;;;;5036182;28;20202;-93
2021/10/12 12:06:31;;;;;;;1.30;0.97;;;;;;;;;;5035830;28;20195;-92
2021/10/12 12:08:59;;;;;;;0.80;0.70;;;;;;;;;;5035831;28;20736;-93
2021/10/12 12:11:28;;;;;;;0.93;0.93;;;;;;;;;;5036067;28;20203;-92
2021/10/12 12:13:57;;;;;;;0.70;0.70;;;;;;;;;;5035995;28;20285;-91
2021/10/12 12:16:27;;;;;;;0.40;0.40;;;;;;;;;;5035838;28;20198;-91
2021/10/12 12:18:54;;;;;;;1.40;1.40;;;;;;;;;;5035598;28;20230;-95
2021/10/12 12:21:33;;;;;;;0.50;0.50;;;;;;;;;;5035748;28;20222;-93
2021/10/12 12:24:04;;;;;;;4.20;2.50;;;;;;;;;;5035691;28;20583;-93
2021/10/12 12:26:32;;;;;;;2.10;1.90;;;;;;;;;;5035375;28;20240;-92
2021/10/12 12:29:21;;;;;;;1.47;1.37;;;;;;;;;;5035715;28;20206;-94
2021/10/12 12:31:53;;;;;;;1.17;1.17;;;;;;;;;;5035706;28;20194;-93
2021/10/12 12:34:30;;;;;;;1.07;0.90;;;;;;;;;;5035753;28;20261;-93
2021/10/12 12:36:57;;;;;;;2.47;1.33;;;;;;;;;;5035397;28;20667;-93
2021/10/12 12:39:35;;;;;;;1.60;1.50;;;;;;;;;;5035165;28;20224;-91
2021/10/12 12:42:04;;;;;;;1.07;1.07;;;;;;;;;;5035369;28;20229;-92
2021/10/12 12:44:33;;;;;;;0.70;0.70;;;;;;;;;;5035437;28;20631;-93
2021/10/12 12:47:01;;;;;;;1.03;1.03;;;;;;;;;;5035378;28;20663;-90
2021/10/12 12:49:29;;;;;;;1.00;1.00;;;;;;;;;;5034664;28;20282;-93
2021/10/12 12:51:57;;;;;;;1.43;1.30;;;;;;;;;;5035120;28;20202;-94
2021/10/12 12:54:41;;;;;;;0.60;0.60;;;;;;;;;;5035385;28;20203;-92
2021/10/12 12:57:09;;;;;;;1.27;0.63;;;;;;;;;;5035182;28;20183;-91
2021/10/12 12:59:39;;;;;;;0.70;0.70;;;;;;;;;;5035115;28;20631;-92
2021/10/12 13:02:08;;;;;;;1.40;1.30;;;;;;;;;;5034976;28;20279;-92
2021/10/12 13:04:35;;;;;;;1.33;1.23;;;;;;;;;;5034082;28;20260;-94
2021/10/12 13:07:02;;;;;;;1.47;1.37;;;;;;;;;;5034814;28;20205;-93
2021/10/12 13:09:31;;;;;;;1.30;1.20;;;;;;;;;;5034810;28;20210;-91
2021/10/12 13:11:58;;;;;;;7.30;3.53;;;;;;;;;;5035083;28;20190;-92
2021/10/12 13:14:26;;;;;;;1.80;1.70;;;;;;;;;;5034831;28;20725;-93
2021/10/12 13:16:54;;;;;;;0.70;0.70;;;;;;;;;;5034652;28;20278;-91
2021/10/12 13:19:22;;;;;;;2.23;1.30;;;;;;;;;;5034638;28;20250;-92
2021/10/12 13:21:49;;;;;;;7.97;5.27;;;;;;;;;;5034756;28;20199;-93
2021/10/12 13:24:16;;;;;;;2.97;2.60;;;;;;;;;;5034680;28;20620;-89
2021/10/12 13:26:44;;;;;;;3.27;2.97;;;;;;;;;;5034496;28;20717;-92
2021/10/12 13:29:11;;;;;;;8.17;3.10;;;;;;;;;;5034236;28;20201;-90
2021/10/12 13:31:38;;;;;;;2.67;2.43;;;;;;;;;;5034429;28;20199;-91
2021/10/12 13:34:07;;;;;;;2.10;1.90;;;;;;;;;;5034238;28;20194;-93
2021/10/12 13:36:35;;;;;;;1.20;1.10;;;;;;;;;;5034254;28;20199;-93
2021/10/12 13:39:02;;;;;;;0.77;0.77;;;;;;;;;;5034274;28;20230;-94
2021/10/12 13:41:30;;;;;;;0.90;0.70;;;;;;;;;;5034418;28;20198;-92
2021/10/12 13:43:57;;;;;;;2.57;1.33;;;;;;;;;;5034385;28;20286;-92
2021/10/12 13:46:24;;;;;;;1.60;1.07;;;;;;;;;;5034050;28;20195;-94
2021/10/12 13:48:51;;;;;;;1.53;1.30;;;;;;;;;;5034495;28;20210;-93
2021/10/12 13:51:20;;;;;;;1.40;1.30;;;;;;;;;;5034233;28;20199;-94
2021/10/12 13:53:47;;;;;;;6.67;3.07;;;;;;;;;;5034246;28;20583;-94
2021/10/12 13:56:14;;;;;;;9.60;4.30;;;;;;;;;;5034313;28;20248;-92
2021/10/12 13:58:42;;;;;;;24.57;13.10;;;;;;;;;;5034207;28;20284;-94
2021/10/12 14:01:09;;;;;;;26.87;16.40;;;;;;;;;;5034194;28;20203;-95
2021/10/12 14:03:37;;;;;;;19.53;13.97;;;;;;;;;;5036601;28;20579;-95
2021/10/12 14:06:05;;;;;;;2.57;2.37;;;;;;;;;;5036834;28;20195;-95
2021/10/12 14:08:34;;;;;;;0.50;0.50;;;;;;;;;;5036097;28;20222;-95
2021/10/12 14:11:01;;;;;;;2.33;1.00;;;;;;;;;;5040494;28;20199;-95
2021/10/12 14:13:32;;;;;;;1.07;1.07;;;;;;;;;;5037196;28;20228;-96
2021/10/12 14:15:59;;;;;;;1.47;1.37;;;;;;;;;;5038372;28;20249;-94
2021/10/12 14:18:30;;;;;;;0.97;0.97;;;;;;;;;;5041757;28;20245;-95
2021/10/12 14:20:58;;;;;;;0.63;0.63;;;;;;;;;;5046957;28;20202;-96
2021/10/12 14:23:27;;;;;;;0.97;0.93;;;;;;;;;;5045725;28;20218;-95
2021/10/12 14:25:56;;;;;;;0.40;0.40;;;;;;;;;;5018566;28;20255;-92
2021/10/12 14:31:33;;;;;;;1.83;1.67;;;;;;;;;;4961455;28;20214;-96
2021/10/12 14:34:02;;;;;;;18.97;10.30;;;;;;;;;;5018336;28;20329;-95
2021/10/12 14:36:29;;;;;;;20.20;8.60;;;;;;;;;;5015445;28;20258;-95
2021/10/12 14:38:56;;;;;;;1.30;1.20;;;;;;;;;;5013900;28;20237;-94
2021/10/12 14:41:25;;;;;;;0.80;0.80;;;;;;;;;;5015234;28;20652;-95
2021/10/12 14:43:53;;;;;;;0.60;0.60;;;;;;;;;;5018082;28;20230;-95
2021/10/12 14:46:20;;;;;;;0.70;0.70;;;;;;;;;;5018770;28;20298;-95
2021/10/12 14:48:48;;;;;;;0.70;0.70;;;;;;;;;;5018483;28;20630;-95
2021/10/12 14:51:18;;;;;;;0.53;0.50;;;;;;;;;;5022096;28;20214;-96
2021/10/12 14:53:46;;;;;;;0.83;0.80;;;;;;;;;;5025420;28;20184;-95
2021/10/12 14:56:19;;;;;;;0.50;0.50;;;;;;;;;;5023674;28;20219;-96
2021/10/12 14:58:49;;;;;;;1.07;0.97;;;;;;;;;;5023489;28;20432;-96
2021/10/12 15:01:16;;;;;;;0.67;0.67;;;;;;;;;;5021233;28;20587;-96
2021/10/12 15:03:46;;;;;;;1.27;1.10;;;;;;;;;;5021868;28;20257;-96
2021/10/12 15:06:14;;;;;;;0.23;0.23;;;;;;;;;;5024920;28;20200;-96
2021/10/12 15:08:41;;;;;;;0.73;0.73;;;;;;;;;;5018029;28;20601;-96
2021/10/12 15:11:09;;;;;;;1.23;1.23;;;;;;;;;;5019000;28;20210;-95
2021/10/12 15:13:37;;;;;;;0.80;0.80;;;;;;;;;;5021799;28;20664;-95
2021/10/12 15:16:06;;;;;;;11.73;6.17;;;;;;;;;;5021304;28;20221;-95
2021/10/12 15:18:34;;;;;;;34.63;11.87;;;;;;;;;;5025936;28;20203;-96